createdAt,value
2019-02-21T00:01:40.235Z,5.25
2019-02-21T00:04:09.707Z,5.21
2019-02-21T00:06:39.198Z,5.31
2019-02-21T00:09:09.259Z,5.26
2019-02-21T00:11:38.787Z,5.27
2019-02-21T00:14:08.260Z,5.22
2019-02-21T00:16:38.073Z,5.19
2019-02-21T00:19:07.540Z,5.18
2019-02-21T00:21:36.995Z,5.07
2019-02-21T00:24:06.474Z,5.00
2019-02-21T00:26:36.321Z,4.93
2019-02-21T00:29:05.806Z,4.89
2019-02-21T00:31:35.314Z,4.82
2019-02-21T00:34:04.751Z,4.85
2019-02-21T00:36:34.221Z,4.90
2019-02-21T00:39:05.026Z,4.95
2019-02-21T00:41:34.551Z,5.07
2019-02-21T00:44:04.384Z,5.01
2019-02-21T00:46:33.867Z,5.01
2019-02-21T00:49:03.412Z,5.08
2019-02-21T00:51:32.888Z,5.29
2019-02-21T00:54:02.360Z,5.37
2019-02-21T00:56:31.824Z,5.52
2019-02-21T00:59:01.730Z,5.62
2019-02-21T01:01:31.291Z,5.72
2019-02-21T01:04:01.050Z,5.83
2019-02-21T01:06:30.509Z,5.85
2019-02-21T01:09:01.951Z,5.81
2019-02-21T01:11:31.403Z,5.80
2019-02-21T01:14:00.880Z,5.88
2019-02-21T01:16:30.775Z,5.84
2019-02-21T01:19:00.205Z,5.86
2019-02-21T01:21:29.668Z,5.78
2019-02-21T01:23:59.197Z,5.72
2019-02-21T01:26:28.665Z,5.72
2019-02-21T01:28:58.136Z,5.65
2019-02-21T01:31:27.697Z,5.56
2019-02-21T01:33:57.168Z,5.61
2019-02-21T01:36:26.641Z,5.64
2019-02-21T01:38:56.120Z,5.80
2019-02-21T01:41:25.623Z,5.83
2019-02-21T01:43:55.115Z,5.96
2019-02-21T01:46:24.581Z,6.07
2019-02-21T01:48:54.044Z,6.02
2019-02-21T01:51:23.507Z,5.95
2019-02-21T01:53:53.073Z,5.92
2019-02-21T01:56:22.834Z,5.95
2019-02-21T01:58:52.312Z,5.85
2019-02-21T02:01:22.227Z,5.73
2019-02-21T02:03:51.972Z,5.63
2019-02-21T02:06:21.510Z,5.64
2019-02-21T02:08:51.510Z,5.58
2019-02-21T02:11:21.160Z,5.52
2019-02-21T02:13:51.003Z,5.54
2019-02-21T02:16:20.631Z,5.54
2019-02-21T02:18:50.482Z,5.48
2019-02-21T02:21:20.465Z,5.39
2019-02-21T02:23:50.225Z,5.41
2019-02-21T02:26:20.176Z,5.38
2019-02-21T02:28:49.858Z,5.50
2019-02-21T02:31:23.412Z,5.43
2019-02-21T02:33:50.794Z,5.41
2019-02-21T02:36:20.253Z,5.35
2019-02-21T02:38:50.192Z,5.34
2019-02-21T02:41:19.730Z,5.36
2019-02-21T02:43:49.302Z,5.38
2019-02-21T02:46:18.759Z,5.49
2019-02-21T02:48:48.247Z,5.56
2019-02-21T02:51:17.700Z,5.54
2019-02-21T02:53:47.706Z,5.48
2019-02-21T02:56:17.249Z,5.39
2019-02-21T02:58:46.753Z,5.36
2019-02-21T03:01:16.215Z,5.29
2019-02-21T03:03:45.718Z,5.29
2019-02-21T03:06:15.183Z,5.54
2019-02-21T03:08:44.901Z,5.50
2019-02-21T03:11:14.427Z,5.51
2019-02-21T03:13:43.872Z,5.66
2019-02-21T03:16:13.611Z,5.71
2019-02-21T03:18:43.308Z,5.86
2019-02-21T03:21:12.807Z,5.85
2019-02-21T03:23:42.614Z,5.81
2019-02-21T03:26:12.150Z,5.72
2019-02-21T03:28:41.682Z,5.63
2019-02-21T03:31:11.151Z,5.63
2019-02-21T03:33:40.619Z,5.72
2019-02-21T03:36:10.110Z,5.73
2019-02-21T03:38:39.590Z,5.69
2019-02-21T03:41:09.452Z,5.72
2019-02-21T03:43:38.912Z,5.83
2019-02-21T03:46:08.390Z,5.91
2019-02-21T03:48:38.107Z,5.87
2019-02-21T03:51:07.600Z,5.82
2019-02-21T03:53:37.039Z,5.68
2019-02-21T03:56:06.507Z,5.61
2019-02-21T03:58:36.602Z,5.62
2019-02-21T04:01:07.772Z,5.66
2019-02-21T04:03:43.069Z,5.61
2019-02-21T04:06:21.995Z,5.58
2019-02-21T04:08:51.572Z,5.59
2019-02-21T04:11:22.986Z,5.61
2019-02-21T04:14:00.950Z,5.62
2019-02-21T04:16:37.835Z,5.81
2019-02-21T04:19:20.404Z,5.90
2019-02-21T04:21:47.421Z,5.93
2019-02-21T04:24:20.181Z,5.86
2019-02-21T04:27:00.224Z,5.84
2019-02-21T04:29:37.127Z,5.85
2019-02-21T04:32:18.019Z,5.79
2019-02-21T04:34:50.468Z,5.78
2019-02-21T04:37:21.654Z,5.72
2019-02-21T04:40:03.535Z,5.69
2019-02-21T04:42:38.520Z,5.70
2019-02-21T04:45:12.836Z,5.70
2019-02-21T04:47:46.856Z,5.71
2019-02-21T04:50:19.625Z,5.74
2019-02-21T04:52:52.767Z,5.85
2019-02-21T04:55:34.442Z,5.94
2019-02-21T04:58:02.226Z,5.99
2019-02-21T05:00:34.546Z,5.97
2019-02-21T05:03:13.100Z,5.93
2019-02-21T05:05:53.422Z,5.91
2019-02-21T05:08:33.402Z,5.93
2019-02-21T05:11:09.125Z,5.97
2019-02-21T05:13:45.006Z,6.01
2019-02-21T05:16:23.934Z,6.05
2019-02-21T05:19:01.953Z,6.11
2019-02-21T05:21:43.346Z,6.09
2019-02-21T05:27:21.257Z,6.03
2019-02-21T05:29:52.460Z,6.12
2019-02-21T05:32:40.206Z,6.11
2019-02-21T05:35:37.907Z,6.05
2019-02-21T05:38:33.017Z,6.01
2019-02-21T05:41:31.943Z,5.92
2019-02-21T05:44:06.493Z,5.80
2019-02-21T05:46:53.245Z,5.75
2019-02-21T05:50:01.505Z,5.75
2019-02-21T05:52:42.579Z,5.74
2019-02-21T05:55:21.048Z,5.76
2019-02-21T05:57:58.909Z,5.80
2019-02-21T06:00:47.250Z,5.80
2019-02-21T06:03:31.495Z,5.86
2019-02-21T06:06:20.510Z,5.88
2019-02-21T06:09:09.368Z,5.91
2019-02-21T06:11:59.924Z,5.97
2019-02-21T06:14:54.272Z,6.03
2019-02-21T06:17:44.520Z,6.09
2019-02-21T06:23:25.036Z,6.15
2019-02-21T06:26:00.624Z,6.14
2019-02-21T06:28:37.723Z,6.24
2019-02-21T06:31:09.466Z,6.33
2019-02-21T06:33:52.675Z,6.45
2019-02-21T06:36:35.896Z,6.49
2019-02-21T06:39:10.463Z,6.56
2019-02-21T06:41:44.560Z,6.59
2019-02-21T06:44:19.042Z,6.61
2019-02-21T06:47:00.353Z,6.71
2019-02-21T06:52:22.855Z,6.96
2019-02-21T06:55:03.590Z,6.95
2019-02-21T06:57:51.747Z,6.92
2019-02-21T07:00:29.173Z,6.92
2019-02-21T07:03:22.813Z,6.97
2019-02-21T07:06:00.031Z,7.04
2019-02-21T07:08:31.258Z,7.12
2019-02-21T07:11:06.675Z,7.21
2019-02-21T07:13:39.805Z,7.22
2019-02-21T07:16:13.110Z,7.22
2019-02-21T07:18:45.979Z,7.26
2019-02-21T07:21:31.907Z,7.33
2019-02-21T07:24:11.614Z,7.36
2019-02-21T07:26:52.127Z,7.49
2019-02-21T07:29:34.434Z,7.63
2019-02-21T07:32:06.763Z,7.84
2019-02-21T07:34:36.258Z,8.20
2019-02-21T07:37:05.738Z,8.45
2019-02-21T07:39:36.487Z,8.69
2019-02-21T07:42:06.032Z,8.93
2019-02-21T07:44:35.786Z,9.11
2019-02-21T07:47:05.349Z,9.22
2019-02-21T07:49:34.843Z,9.21
2019-02-21T07:52:05.556Z,9.20
2019-02-21T07:54:37.060Z,9.26
2019-02-21T07:57:08.495Z,9.24
2019-02-21T07:59:37.700Z,9.36
2019-02-21T08:02:07.178Z,9.55
2019-02-21T08:04:37.151Z,9.79
2019-02-21T08:07:06.730Z,10.06
2019-02-21T08:09:36.249Z,10.50
2019-02-21T08:12:05.823Z,10.62
2019-02-21T08:14:35.332Z,10.80
2019-02-21T08:17:04.822Z,10.77
2019-02-21T08:19:34.707Z,10.90
2019-02-21T08:22:04.199Z,10.98
2019-02-21T08:24:34.024Z,11.14
2019-02-21T08:27:03.520Z,11.30
2019-02-21T08:29:32.991Z,11.47
2019-02-21T08:32:02.485Z,11.34
2019-02-21T08:34:33.740Z,11.13
2019-02-21T08:37:03.214Z,10.85
2019-02-21T08:39:32.706Z,10.71
2019-02-21T08:42:02.185Z,10.54
2019-02-21T08:44:31.664Z,10.72
2019-02-21T08:47:01.421Z,10.85
2019-02-21T08:49:31.069Z,11.16
2019-02-21T08:52:00.587Z,11.23
2019-02-21T08:54:30.071Z,11.06
2019-02-21T08:56:59.739Z,10.90
2019-02-21T08:59:29.197Z,10.92
2019-02-21T09:01:58.683Z,10.88
2019-02-21T09:04:28.196Z,10.94
2019-02-21T09:06:57.656Z,10.96
2019-02-21T09:09:27.151Z,11.09
2019-02-21T09:11:56.617Z,11.73
2019-02-21T09:14:26.109Z,12.52
2019-02-21T09:16:55.577Z,13.49
2019-02-21T09:19:25.057Z,14.31
2019-02-21T09:21:54.730Z,13.80
2019-02-21T09:24:37.647Z,13.49
2019-02-21T09:26:57.368Z,13.34
2019-02-21T09:29:26.898Z,12.87
2019-02-21T09:31:56.384Z,12.39
2019-02-21T09:34:25.867Z,11.99
2019-02-21T09:36:55.651Z,11.73
2019-02-21T09:39:25.117Z,11.41
2019-02-21T09:41:54.621Z,11.16
2019-02-21T09:44:27.126Z,11.02
2019-02-21T09:46:55.281Z,10.97
2019-02-21T09:49:25.020Z,10.95
2019-02-21T09:51:54.481Z,11.02
2019-02-21T09:54:24.252Z,11.16
2019-02-21T09:56:53.787Z,11.30
2019-02-21T09:59:23.276Z,11.48
2019-02-21T10:01:52.781Z,11.55
2019-02-21T10:04:31.786Z,11.76
2019-02-21T10:06:53.524Z,11.97
2019-02-21T10:09:23.034Z,12.13
2019-02-21T10:11:52.564Z,12.21
2019-02-21T10:14:22.066Z,12.25
2019-02-21T10:16:51.540Z,12.32
2019-02-21T10:19:21.320Z,12.32
2019-02-21T10:21:50.750Z,12.14
2019-02-21T10:24:20.550Z,11.91
2019-02-21T10:26:50.104Z,11.86
2019-02-21T10:29:19.611Z,11.45
2019-02-21T10:31:49.095Z,11.20
2019-02-21T10:34:18.602Z,11.07
2019-02-21T10:36:48.083Z,10.99
2019-02-21T10:39:18.013Z,10.88
2019-02-21T10:41:47.479Z,10.85
2019-02-21T10:44:16.960Z,10.70
2019-02-21T10:46:46.437Z,10.60
2019-02-21T10:49:16.190Z,10.42
2019-02-21T10:51:45.946Z,10.26
2019-02-21T10:54:15.433Z,10.13
2019-02-21T10:56:45.154Z,9.81
2019-02-21T10:59:14.629Z,9.41
2019-02-21T11:01:44.097Z,9.04
2019-02-21T11:04:13.640Z,8.72
2019-02-21T11:06:43.125Z,8.56
2019-02-21T11:09:15.953Z,8.43
2019-02-21T11:11:45.420Z,8.31
2019-02-21T11:14:14.897Z,8.27
2019-02-21T11:16:44.787Z,8.35
2019-02-21T11:19:14.272Z,8.53
2019-02-21T11:21:43.817Z,8.83
2019-02-21T11:24:13.736Z,9.19
2019-02-21T11:26:43.195Z,9.35
2019-02-21T11:29:12.690Z,9.37
2019-02-21T11:31:42.163Z,9.34
2019-02-21T11:34:11.752Z,9.34
2019-02-21T11:36:41.375Z,9.30
2019-02-21T11:39:10.876Z,9.24
2019-02-21T11:41:40.669Z,9.32
2019-02-21T11:44:10.148Z,9.34
2019-02-21T11:46:39.602Z,9.29
2019-02-21T11:49:09.614Z,9.27
2019-02-21T11:51:39.507Z,9.32
2019-02-21T11:54:08.992Z,9.41
2019-02-21T11:56:38.459Z,9.62
2019-02-21T11:59:07.934Z,9.81
2019-02-21T12:01:44.713Z,9.98
2019-02-21T12:04:15.803Z,10.09
2019-02-21T12:06:52.843Z,10.07
2019-02-21T12:09:30.201Z,10.06
2019-02-21T12:12:01.286Z,10.05
2019-02-21T12:14:41.398Z,10.03
2019-02-21T12:17:17.020Z,9.97
2019-02-21T12:20:02.048Z,10.10
2019-02-21T12:25:38.181Z,10.18
2019-02-21T12:28:26.948Z,10.42
2019-02-21T12:30:58.223Z,10.64
2019-02-21T12:33:51.326Z,10.92
2019-02-21T12:36:32.525Z,11.27
2019-02-21T12:39:12.562Z,11.51
2019-02-21T12:41:48.961Z,11.67
2019-02-21T12:44:24.728Z,11.84
2019-02-21T12:46:59.459Z,11.99
2019-02-21T12:49:32.643Z,12.27
2019-02-21T12:52:08.850Z,12.58
2019-02-21T12:54:42.468Z,12.72
2019-02-21T12:57:21.701Z,12.93
2019-02-21T13:00:01.844Z,13.01
2019-02-21T13:02:41.027Z,12.73
2019-02-21T13:05:14.038Z,12.97
2019-02-21T13:10:44.549Z,13.24
2019-02-21T13:13:14.054Z,13.18
2019-02-21T13:15:43.528Z,13.54
2019-02-21T13:18:15.870Z,13.45
2019-02-21T13:20:44.230Z,13.20
2019-02-21T13:23:13.714Z,12.77
2019-02-21T13:25:43.202Z,12.48
2019-02-21T13:28:12.700Z,12.44
2019-02-21T13:30:42.214Z,12.24
2019-02-21T13:33:12.136Z,12.26
2019-02-21T13:35:52.165Z,12.20
2019-02-21T13:38:13.087Z,12.20
2019-02-21T13:40:42.566Z,12.20
2019-02-21T13:43:12.058Z,12.35
2019-02-21T13:45:41.892Z,12.40
2019-02-21T13:48:11.371Z,12.35
2019-02-21T13:50:40.844Z,12.24
2019-02-21T13:53:10.318Z,12.13
2019-02-21T13:55:39.808Z,12.17
2019-02-21T13:58:09.347Z,12.09
2019-02-21T14:00:38.897Z,12.04
2019-02-21T14:03:08.362Z,12.04
2019-02-21T14:05:37.857Z,11.87
2019-02-21T14:08:07.402Z,11.77
2019-02-21T14:10:36.878Z,11.86
2019-02-21T14:13:07.350Z,11.85
2019-02-21T14:15:36.845Z,12.03
2019-02-21T14:18:06.306Z,12.11
2019-02-21T14:20:45.059Z,12.19
2019-02-21T14:23:07.290Z,12.12
2019-02-21T14:25:40.859Z,12.00
2019-02-21T14:28:07.953Z,11.88
2019-02-21T14:30:37.441Z,11.73
2019-02-21T14:33:06.916Z,11.55
2019-02-21T14:35:36.413Z,11.54
2019-02-21T14:38:05.951Z,11.42
2019-02-21T14:40:35.435Z,11.27
2019-02-21T14:43:05.335Z,11.24
2019-02-21T14:45:34.819Z,11.09
2019-02-21T14:48:04.293Z,11.07
2019-02-21T14:50:35.899Z,10.99
2019-02-21T14:53:05.203Z,10.90
2019-02-21T14:55:34.715Z,10.85
2019-02-21T14:58:04.608Z,10.80
2019-02-21T15:00:34.214Z,10.72
2019-02-21T15:03:03.687Z,10.71
2019-02-21T15:05:33.183Z,10.73
2019-02-21T15:08:02.671Z,10.78
2019-02-21T15:10:32.159Z,10.77
2019-02-21T15:13:01.641Z,10.75
2019-02-21T15:15:32.284Z,10.80
2019-02-21T15:18:07.649Z,10.80
2019-02-21T15:20:36.837Z,10.70
2019-02-21T15:23:04.715Z,10.64
2019-02-21T15:25:34.205Z,10.59
2019-02-21T15:28:03.680Z,10.58
2019-02-21T15:30:33.201Z,10.52
2019-02-21T15:33:02.738Z,10.57
2019-02-21T15:35:33.388Z,10.50
2019-02-21T15:38:02.899Z,10.48
2019-02-21T15:40:32.372Z,10.45
2019-02-21T15:43:01.838Z,10.45
2019-02-21T15:45:31.678Z,10.38
2019-02-21T15:48:01.247Z,10.37
2019-02-21T15:50:31.690Z,10.35
2019-02-21T15:53:01.197Z,10.35
2019-02-21T15:55:32.178Z,10.31
2019-02-21T15:58:04.221Z,10.30
2019-02-21T16:00:33.091Z,10.26
2019-02-21T16:03:02.563Z,10.18
2019-02-21T16:05:32.039Z,10.13
2019-02-21T16:08:01.517Z,10.10
2019-02-21T16:10:30.983Z,10.06
2019-02-21T16:13:04.200Z,10.08
2019-02-21T16:15:31.637Z,10.10
2019-02-21T16:18:01.101Z,10.07
2019-02-21T16:20:30.757Z,10.05
2019-02-21T16:23:00.217Z,10.01
2019-02-21T16:25:32.123Z,10.02
2019-02-21T16:28:01.593Z,9.98
2019-02-21T16:30:31.058Z,9.94
2019-02-21T16:33:00.615Z,9.92
2019-02-21T16:35:30.092Z,9.93
2019-02-21T16:38:00.012Z,9.90
2019-02-21T16:40:31.013Z,9.88
2019-02-21T16:43:00.644Z,9.86
2019-02-21T16:45:42.428Z,9.86
2019-02-21T16:48:01.295Z,9.83
2019-02-21T16:50:30.772Z,9.84
2019-02-21T16:53:00.229Z,9.81
2019-02-21T16:55:29.704Z,9.82
2019-02-21T16:57:59.451Z,9.78
2019-02-21T17:00:42.252Z,9.78
2019-02-21T17:03:00.426Z,9.77
2019-02-21T17:05:29.917Z,9.77
2019-02-21T17:07:59.726Z,9.75
2019-02-21T17:10:29.232Z,9.71
2019-02-21T17:12:59.085Z,9.71
2019-02-21T17:15:28.843Z,9.52
2019-02-21T17:18:03.686Z,9.29
2019-02-21T17:20:29.478Z,9.01
2019-02-21T17:22:58.952Z,8.80
2019-02-21T17:25:29.082Z,8.65
2019-02-21T17:27:58.864Z,8.47
2019-02-21T17:30:28.663Z,8.39
2019-02-21T17:32:58.150Z,8.32
2019-02-21T17:35:27.626Z,8.26
2019-02-21T17:37:57.108Z,8.19
2019-02-21T17:40:26.857Z,8.16
2019-02-21T17:42:56.402Z,8.12
2019-02-21T17:45:26.192Z,8.08
2019-02-21T17:47:55.757Z,8.07
2019-02-21T17:50:25.259Z,8.05
2019-02-21T17:52:55.061Z,8.03
2019-02-21T17:55:24.500Z,8.05
2019-02-21T17:57:54.199Z,8.06
2019-02-21T18:00:26.545Z,8.12
2019-02-21T18:03:05.559Z,8.12
2019-02-21T18:05:47.249Z,8.20
2019-02-21T18:08:37.105Z,8.32
2019-02-21T18:11:15.546Z,8.27
2019-02-21T18:14:00.459Z,8.32
2019-02-21T18:16:32.733Z,8.33
2019-02-21T18:19:13.667Z,8.34
2019-02-21T18:21:49.509Z,8.30
2019-02-21T18:24:31.309Z,8.29
2019-02-21T18:27:10.889Z,8.29
2019-02-21T18:29:48.016Z,8.33
2019-02-21T18:32:25.163Z,8.36
2019-02-21T18:35:09.171Z,8.40
2019-02-21T18:37:47.481Z,8.44
2019-02-21T18:40:30.404Z,8.44
2019-02-21T18:43:13.580Z,8.55
2019-02-21T18:45:47.435Z,8.47
2019-02-21T18:48:22.146Z,8.42
2019-02-21T18:51:03.243Z,8.41
2019-02-21T18:53:43.080Z,8.42
2019-02-21T18:56:21.144Z,8.38
2019-02-21T18:58:58.183Z,8.41
2019-02-21T19:01:29.329Z,8.38
2019-02-21T19:04:07.986Z,8.38
2019-02-21T19:06:50.381Z,8.45
2019-02-21T19:09:32.451Z,8.43
2019-02-21T19:12:09.681Z,8.47
2019-02-21T19:14:43.315Z,8.44
2019-02-21T19:17:12.645Z,8.43
2019-02-21T19:19:44.597Z,8.52
2019-02-21T19:22:15.296Z,8.55
2019-02-21T19:24:44.849Z,8.56
2019-02-21T19:27:16.176Z,8.59
2019-02-21T19:29:47.423Z,8.55
2019-02-21T19:32:17.027Z,8.49
2019-02-21T19:34:48.100Z,8.50
2019-02-21T19:37:19.654Z,8.46
2019-02-21T19:39:51.083Z,8.50
2019-02-21T19:42:22.212Z,8.51
2019-02-21T19:44:53.515Z,8.50
2019-02-21T19:47:29.360Z,8.51
2019-02-21T19:50:00.510Z,8.47
2019-02-21T19:52:30.488Z,8.47
2019-02-21T19:55:15.834Z,8.47
2019-02-21T19:57:51.581Z,8.48
2019-02-21T20:03:37.515Z,8.53
2019-02-21T20:06:10.279Z,8.50
2019-02-21T20:08:42.827Z,8.44
2019-02-21T20:11:19.516Z,8.34
2019-02-21T20:13:51.782Z,8.29
2019-02-21T20:16:21.653Z,8.20
2019-02-21T20:19:00.447Z,8.22
2019-02-21T20:21:35.908Z,8.15
2019-02-21T20:24:06.563Z,8.10
2019-02-21T20:26:43.300Z,8.08
2019-02-21T20:29:13.142Z,8.09
2019-02-21T20:31:42.710Z,8.05
2019-02-21T20:34:13.078Z,8.08
2019-02-21T20:36:50.629Z,8.03
2019-02-21T20:39:15.466Z,7.99
2019-02-21T20:41:45.053Z,8.03
2019-02-21T20:44:14.656Z,7.97
2019-02-21T20:46:44.180Z,7.91
2019-02-21T20:49:13.664Z,7.95
2019-02-21T20:51:43.144Z,7.90
2019-02-21T20:54:13.006Z,7.90
2019-02-21T20:56:42.465Z,7.96
2019-02-21T20:59:11.953Z,7.90
2019-02-21T21:01:41.478Z,7.88
2019-02-21T21:04:11.013Z,7.88
2019-02-21T21:06:40.470Z,7.89
2019-02-21T21:09:10.332Z,7.88
2019-02-21T21:11:39.806Z,7.94
2019-02-21T21:14:09.289Z,7.89
2019-02-21T21:16:38.752Z,7.90
2019-02-21T21:19:08.599Z,7.87
2019-02-21T21:21:38.070Z,7.90
2019-02-21T21:24:07.823Z,7.84
2019-02-21T21:26:37.942Z,7.81
2019-02-21T21:29:07.417Z,7.79
2019-02-21T21:31:36.880Z,7.80
2019-02-21T21:34:06.532Z,7.85
2019-02-21T21:36:36.368Z,7.86
2019-02-21T21:39:05.921Z,7.82
2019-02-21T21:41:35.398Z,7.84
2019-02-21T21:44:05.270Z,7.82
2019-02-21T21:46:34.709Z,7.80
2019-02-21T21:49:04.344Z,7.82
2019-02-21T21:51:34.244Z,7.81
2019-02-21T21:54:03.724Z,7.79
2019-02-21T21:56:33.188Z,7.80
2019-02-21T21:59:02.659Z,7.76
2019-02-21T22:01:32.475Z,7.74
2019-02-21T22:04:02.268Z,7.72
2019-02-21T22:06:32.074Z,7.77
2019-02-21T22:09:04.662Z,7.76
2019-02-21T22:11:32.863Z,7.78
2019-02-21T22:14:02.352Z,7.76
2019-02-21T22:16:34.197Z,7.75
2019-02-21T22:19:04.534Z,7.71
2019-02-21T22:21:34.003Z,7.75
2019-02-21T22:24:03.497Z,7.77
2019-02-21T22:26:33.237Z,7.77
2019-02-21T22:29:02.751Z,7.81
2019-02-21T22:31:32.218Z,7.76
2019-02-21T22:34:01.709Z,7.74
2019-02-21T22:36:31.183Z,7.76
2019-02-21T22:39:02.096Z,7.77
2019-02-21T22:41:31.818Z,7.81
2019-02-21T22:44:01.503Z,7.80
2019-02-21T22:46:32.474Z,7.81
2019-02-21T22:49:02.333Z,7.86
2019-02-21T22:51:31.857Z,7.83
2019-02-21T22:54:01.337Z,7.84
2019-02-21T22:56:30.845Z,7.86
2019-02-21T22:59:00.327Z,7.85
2019-02-21T23:01:31.300Z,7.87
2019-02-21T23:04:09.770Z,7.86
2019-02-21T23:06:45.440Z,7.83
2019-02-21T23:09:26.936Z,7.88
2019-02-21T23:11:50.202Z,7.88
2019-02-21T23:14:19.741Z,7.91
2019-02-21T23:16:49.209Z,7.93
2019-02-21T23:19:19.392Z,7.95
2019-02-21T23:21:48.877Z,7.92
2019-02-21T23:24:18.432Z,7.93
2019-02-21T23:26:47.964Z,7.90
2019-02-21T23:29:17.708Z,7.90
2019-02-21T23:31:47.456Z,7.93
2019-02-21T23:34:18.567Z,7.94
2019-02-21T23:36:48.039Z,7.98
2019-02-21T23:39:17.557Z,7.97
2019-02-21T23:41:47.034Z,7.98
2019-02-21T23:44:16.810Z,7.99
2019-02-21T23:46:46.283Z,7.94
2019-02-21T23:49:15.764Z,7.96
2019-02-21T23:51:45.221Z,7.99
2019-02-21T23:54:14.881Z,8.00
2019-02-21T23:56:44.650Z,7.99
2019-02-21T23:59:14.125Z,7.95
